Time;durP1;ratioP1;P1;durP2;ratioP2;P2;SDS_P1;SDS_P2;PMS_P1;PMS_P2;Temp;Humidity;BMP_temperature;BMP_pressure;BME280_temperature;BME280_humidity;BME280_pressure;Samples;Min_cycle;Max_cycle;Signal;HPM_P1;HPM_P2
2023/05/11 00:01:51;;;;;;;;;4.67;3.00;;;;;25.31;39.25;101466.44;6305041;22;45322;-76
2023/05/11 00:04:16;;;;;;;;;0.00;0.00;;;;;25.21;39.02;101448.94;6304840;22;45355;-77
2023/05/11 00:06:42;;;;;;;;;3.00;3.00;;;;;25.22;39.16;101444.44;6304048;22;46824;-76
2023/05/11 00:09:08;;;;;;;;;6.00;2.33;;;;;25.31;39.23;101461.13;6305306;22;45320;-76
2023/05/11 00:11:34;;;;;;;;;4.00;3.67;;;;;25.29;39.05;101464.78;6304905;22;45102;-76
2023/05/11 00:13:59;;;;;;;;;3.67;3.67;;;;;25.25;39.25;101458.19;6304893;22;45483;-76
2023/05/11 00:16:25;;;;;;;;;4.00;2.67;;;;;25.32;39.02;101466.25;6304308;22;45859;-76
2023/05/11 00:18:50;;;;;;;;;5.00;4.00;;;;;25.31;38.96;101461.13;6305415;22;45257;-76
2023/05/11 00:21:15;;;;;;;;;6.33;2.00;;;;;25.26;39.01;101454.53;6304652;22;45244;-76
2023/05/11 00:23:41;;;;;;;;;3.33;3.00;;;;;25.34;38.92;101458.94;6305371;22;45378;-76
2023/05/11 00:26:06;;;;;;;;;3.67;2.00;;;;;25.35;38.87;101449.91;6303990;22;47022;-76
2023/05/11 00:28:31;;;;;;;;;5.00;3.00;;;;;25.36;38.55;101450.75;6299918;22;45154;-76
2023/05/11 00:30:57;;;;;;;;;5.00;3.00;;;;;25.36;39.11;101453.41;6304576;22;45495;-76
2023/05/11 00:33:23;;;;;;;;;3.00;2.00;;;;;25.29;39.11;101434.69;6304581;22;45230;-77
2023/05/11 00:35:48;;;;;;;;;4.67;3.33;;;;;25.37;39.01;101439.88;6304407;22;45280;-76
2023/05/11 00:38:14;;;;;;;;;4.33;4.33;;;;;25.36;38.62;101442.75;6304540;22;45394;-77
2023/05/11 00:40:40;;;;;;;;;2.67;2.67;;;;;25.38;39.11;101440.72;6305479;22;45367;-77
2023/05/11 00:43:05;;;;;;;;;7.00;4.67;;;;;25.24;39.14;101416.59;6304632;22;45327;-77
2023/05/11 00:45:31;;;;;;;;;5.67;3.33;;;;;25.32;39.00;101439.63;6304837;22;45970;-77
2023/05/11 00:47:57;;;;;;;;;2.00;2.00;;;;;25.37;39.08;101441.75;6304464;22;45364;-77
2023/05/11 00:50:24;;;;;;;;;6.00;3.00;;;;;25.32;39.32;101438.81;6302508;22;45282;-77
2023/05/11 00:52:49;;;;;;;;;6.00;3.00;;;;;25.23;38.88;101430.94;6304825;22;45477;-77
2023/05/11 00:55:18;;;;;;;;;5.67;2.33;;;;;25.34;39.13;101448.28;6304254;22;46390;-77
2023/05/11 00:57:43;;;;;;;;;4.00;2.00;;;;;25.33;39.59;101441.28;6303133;22;45344;-77
2023/05/11 01:00:09;;;;;;;;;3.00;2.00;;;;;25.24;39.21;101431.78;6304222;22;45276;-75
2023/05/11 01:02:35;;;;;;;;;4.33;2.67;;;;;25.23;39.06;101436.25;6304465;22;45205;-77
2023/05/11 01:05:00;;;;;;;;;11.67;5.00;;;;;25.31;39.23;101450.47;6303700;22;46878;-76
2023/05/11 01:07:48;;;;;;;;;2.33;2.00;;;;;25.26;39.23;101441.22;6304633;22;45253;-77
2023/05/11 01:10:33;;;;;;;;;7.00;2.00;;;;;25.29;39.23;101446.16;6304593;22;45314;-77
2023/05/11 01:13:16;;;;;;;;;2.67;2.33;;;;;25.28;39.27;101449.84;6304580;22;45565;-77
2023/05/11 01:15:50;;;;;;;;;6.00;3.00;;;;;25.24;39.51;101437.91;6304386;22;46113;-76
2023/05/11 01:18:42;;;;;;;;;4.00;2.67;;;;;25.29;39.11;101442.69;6304088;22;45322;-76
2023/05/11 01:21:09;;;;;;;;;2.67;2.67;;;;;25.28;39.39;101441.84;6304512;22;45348;-76
2023/05/11 01:24:12;;;;;;;;;3.00;3.00;;;;;25.29;39.58;101448.81;6304566;22;45338;-76
2023/05/11 01:26:40;;;;;;;;;1.00;0.00;;;;;25.28;39.40;101444.50;6304335;22;47319;-76
2023/05/11 01:29:50;;;;;;;;;6.33;4.67;;;;;25.27;39.40;101444.69;6304830;22;45206;-78
2023/05/11 01:32:37;;;;;;;;;2.00;2.00;;;;;25.26;39.67;101446.53;6277571;22;45192;-78
2023/05/11 01:35:31;;;;;;;;;4.33;3.00;;;;;25.26;39.06;101443.88;6303737;22;45469;-78
2023/05/11 01:37:58;;;;;;;;;4.67;2.00;;;;;25.25;39.42;101447.53;6300251;22;46054;-77
2023/05/11 01:40:27;;;;;;;;;2.00;2.00;;;;;25.23;39.20;101441.59;6304291;22;45288;-77
2023/05/11 01:43:00;;;;;;;;;2.67;1.00;;;;;25.29;39.31;101450.66;6304590;22;45220;-77
2023/05/11 01:45:28;;;;;;;;;3.33;3.00;;;;;25.31;39.08;101445.16;6304758;22;45353;-78
2023/05/11 01:47:56;;;;;;;;;2.00;2.00;;;;;25.31;39.39;101445.16;6304213;22;47292;-77
2023/05/11 01:50:24;;;;;;;;;3.00;1.67;;;;;25.32;39.14;101444.94;6303797;22;45268;-78
2023/05/11 01:52:51;;;;;;;;;2.00;2.00;;;;;25.28;39.15;101441.84;6304631;22;45313;-79
2023/05/11 01:55:20;;;;;;;;;2.33;1.67;;;;;25.29;39.05;101448.81;6304194;22;45641;-78
2023/05/11 01:57:50;;;;;;;;;3.00;2.00;;;;;25.21;38.78;101424.97;6303875;22;47114;-78
2023/05/11 02:00:17;;;;;;;;;4.00;3.00;;;;;25.34;39.20;101452.78;6303939;22;45434;-78
2023/05/11 02:02:46;;;;;;;;;2.67;2.00;;;;;25.28;39.07;101438.34;6302384;22;45349;-76
2023/05/11 02:05:17;;;;;;;;;2.33;1.00;;;;;25.17;39.28;101423.69;6304209;22;45507;-78
2023/05/11 02:07:43;;;;;;;;;1.33;1.00;;;;;25.31;39.08;101445.16;6303729;22;47073;-77
2023/05/11 02:10:11;;;;;;;;;1.00;1.00;;;;;25.05;39.35;101407.38;6303969;22;45244;-78
2023/05/11 02:12:38;;;;;;;;;1.67;1.00;;;;;25.34;39.44;101456.25;6303878;22;45240;-79
2023/05/11 02:15:05;;;;;;;;;4.00;1.00;;;;;25.33;39.52;101451.94;6304304;22;45462;-77
2023/05/11 02:17:32;;;;;;;;;3.00;2.67;;;;;25.33;39.07;101462.59;6303578;22;45978;-77
2023/05/11 02:20:00;;;;;;;;;2.00;2.00;;;;;25.26;39.36;101449.22;6304180;22;45295;-78
2023/05/11 02:22:28;;;;;;;;;2.33;2.00;;;;;25.31;39.37;101459.28;6304214;22;45216;-78
2023/05/11 02:24:53;;;;;;;;;4.33;2.00;;;;;25.30;39.44;101462.97;6304154;22;45360;-77
2023/05/11 02:27:19;;;;;;;;;3.00;1.67;;;;;25.28;39.53;101459.66;6304053;22;46037;-77
2023/05/11 02:29:45;;;;;;;;;1.00;0.67;;;;;25.28;39.54;101465.81;6303781;22;45295;-78
2023/05/11 02:32:15;;;;;;;;;3.00;2.33;;;;;25.13;39.74;101449.88;6303887;22;45305;-78
2023/05/11 02:34:44;;;;;;;;;1.33;1.00;;;;;25.27;39.67;101464.16;6303880;22;45213;-78
2023/05/11 02:37:14;;;;;;;;;1.00;1.00;;;;;25.26;39.55;101462.53;6303431;22;46183;-78
2023/05/11 02:39:43;;;;;;;;;3.00;2.00;;;;;25.16;39.23;101449.47;6303730;22;45344;-77
2023/05/11 02:42:13;;;;;;;;;1.00;0.33;;;;;25.26;39.68;101459.88;6304163;22;45415;-78
2023/05/11 02:44:48;;;;;;;;;4.00;2.00;;;;;25.18;39.60;101457.31;6303700;22;45452;-78
2023/05/11 02:47:14;;;;;;;;;4.33;2.33;;;;;25.13;39.60;101452.53;6304239;22;45366;-78
2023/05/11 02:49:43;;;;;;;;;3.00;1.67;;;;;25.17;39.80;101461.81;6303532;22;45205;-78
2023/05/11 02:52:10;;;;;;;;;4.00;2.00;;;;;25.23;39.83;101465.56;6305420;22;45319;-79
2023/05/11 02:54:37;;;;;;;;;3.00;3.00;;;;;25.25;39.72;101468.84;6303532;22;45474;-77
2023/05/11 02:57:03;;;;;;;;;1.33;1.33;;;;;25.16;39.61;101454.00;6304845;22;46951;-78
2023/05/11 02:59:29;;;;;;;;;2.00;2.00;;;;;25.27;39.23;101469.47;6305384;22;45166;-77
2023/05/11 03:01:55;;;;;;;;;4.00;1.00;;;;;25.25;39.43;101460.88;6304114;22;45228;-78
2023/05/11 03:04:21;;;;;;;;;3.00;1.33;;;;;25.20;39.42;101454.44;6298621;22;45367;-78
2023/05/11 03:06:46;;;;;;;;;3.00;3.00;;;;;25.12;39.03;101434.91;6304842;22;46143;-77
2023/05/11 03:09:12;;;;;;;;;1.33;1.33;;;;;25.26;39.39;101453.72;6305280;22;45152;-78
2023/05/11 03:11:38;;;;;;;;;1.67;1.00;;;;;25.22;39.15;101447.09;6305582;22;45143;-77
2023/05/11 03:14:03;;;;;;;;;2.33;1.33;;;;;25.33;39.25;101461.75;6304162;22;45306;-78
2023/05/11 03:16:30;;;;;;;;;1.67;1.00;;;;;25.28;39.40;101459.66;6304590;22;46169;-77
2023/05/11 03:18:57;;;;;;;;;2.00;2.00;;;;;25.34;39.35;101468.75;6305417;22;45335;-77
2023/05/11 03:21:24;;;;;;;;;1.00;1.00;;;;;25.25;39.61;101455.53;6305033;22;45285;-77
2023/05/11 03:23:51;;;;;;;;;4.67;2.00;;;;;25.33;39.59;101467.91;6305260;22;45218;-77
2023/05/11 03:26:20;;;;;;;;;1.00;1.00;;;;;25.32;39.36;101468.91;6304836;22;46434;-78
2023/05/11 03:28:46;;;;;;;;;2.00;1.00;;;;;25.32;39.54;101468.13;6305309;22;45303;-77
2023/05/11 03:31:11;;;;;;;;;2.00;1.00;;;;;25.13;39.47;101438.41;6304992;22;45241;-78
2023/05/11 03:33:37;;;;;;;;;2.67;1.00;;;;;25.30;39.68;101462.97;6305309;22;45479;-78
2023/05/11 03:36:04;;;;;;;;;3.00;2.00;;;;;25.26;39.71;101453.72;6305401;22;45828;-78
2023/05/11 03:38:30;;;;;;;;;1.33;1.33;;;;;25.29;39.76;101461.31;6304898;22;45176;-78
2023/05/11 03:40:57;;;;;;;;;1.67;1.67;;;;;25.28;39.78;101457.84;6305192;22;45238;-78
2023/05/11 03:43:25;;;;;;;;;2.00;1.00;;;;;25.27;39.64;101458.00;6304634;22;45425;-78
2023/05/11 03:45:52;;;;;;;;;2.00;1.33;;;;;25.18;39.74;101442.16;6304713;22;46592;-78
2023/05/11 03:48:19;;;;;;;;;0.33;0.33;;;;;25.21;39.53;101450.78;6305179;22;45280;-78
2023/05/11 03:50:45;;;;;;;;;0.33;0.33;;;;;25.17;39.83;101445.81;6303570;22;45293;-78
2023/05/11 03:53:12;;;;;;;;;1.00;1.00;;;;;25.20;39.79;101441.13;6305263;22;45218;-77
2023/05/11 03:55:37;;;;;;;;;3.33;0.33;;;;;25.24;39.85;101459.19;6304801;22;45196;-78
2023/05/11 03:58:10;;;;;;;;;1.67;1.67;;;;;25.17;40.01;101440.50;6303120;22;45366;-78
2023/05/11 04:00:39;;;;;;;;;1.00;1.00;;;;;25.18;39.79;101439.50;6304798;22;45293;-77
2023/05/11 04:03:05;;;;;;;;;3.33;1.00;;;;;25.14;39.89;101438.19;6304925;22;45459;-78
2023/05/11 04:05:31;;;;;;;;;5.33;1.00;;;;;25.23;39.91;101452.25;6304537;22;47088;-78
2023/05/11 04:07:56;;;;;;;;;4.00;2.67;;;;;25.19;39.79;101445.63;6304364;22;45292;-78
2023/05/11 04:10:22;;;;;;;;;3.00;1.00;;;;;25.18;39.39;101447.47;6304770;22;45291;-78
2023/05/11 04:12:47;;;;;;;;;1.00;1.00;;;;;25.13;39.91;101438.41;6304873;22;45559;-78
2023/05/11 04:15:13;;;;;;;;;1.00;1.00;;;;;25.21;39.49;101450.78;6302008;22;47234;-78
2023/05/11 04:17:38;;;;;;;;;2.00;1.00;;;;;25.24;39.39;101453.88;6305113;22;45247;-78
2023/05/11 04:20:04;;;;;;;;;2.00;1.00;;;;;25.26;39.49;101451.03;6305287;22;45176;-78
2023/05/11 04:22:29;;;;;;;;;2.33;1.00;;;;;24.95;39.38;101400.50;6303282;22;45473;-78
2023/05/11 04:24:55;;;;;;;;;1.00;1.00;;;;;25.25;39.58;101447.53;6304782;22;46433;-77
2023/05/11 04:27:20;;;;;;;;;2.00;2.00;;;;;25.20;39.66;101439.28;6304511;22;45201;-78
2023/05/11 04:29:45;;;;;;;;;4.67;2.00;;;;;25.29;39.60;101451.47;6303993;22;45208;-78
2023/05/11 04:32:11;;;;;;;;;1.00;1.00;;;;;25.29;39.52;101451.47;6303066;22;45233;-78
2023/05/11 04:34:36;;;;;;;;;3.00;1.67;;;;;25.29;39.51;101443.47;6304024;22;46033;-78
2023/05/11 04:37:06;;;;;;;;;2.33;2.00;;;;;25.30;39.11;101454.97;6304665;22;45299;-78
2023/05/11 04:39:31;;;;;;;;;0.33;0.33;;;;;25.06;39.35;101414.34;6304883;22;45247;-78
2023/05/11 04:41:58;;;;;;;;;3.67;1.00;;;;;25.16;39.48;101424.72;6305171;22;45370;-78
2023/05/11 04:44:23;;;;;;;;;1.00;1.00;;;;;25.19;39.78;101429.66;6304262;22;45340;-78
2023/05/11 04:46:53;;;;;;;;;1.00;1.00;;;;;25.19;39.59;101432.31;6304348;22;45417;-81
2023/05/11 04:49:18;;;;;;;;;1.00;1.00;;;;;25.18;39.66;101430.69;6305197;22;45375;-80
2023/05/11 04:51:44;;;;;;;;;1.00;1.00;;;;;25.29;39.78;101461.31;6305485;22;45395;-81
2023/05/11 04:54:09;;;;;;;;;2.67;2.00;;;;;25.32;39.52;101460.13;6304477;22;46421;-79
2023/05/11 04:56:39;;;;;;;;;1.33;1.00;;;;;25.32;39.61;101454.81;6305002;22;45273;-79
2023/05/11 04:59:05;;;;;;;;;1.00;1.00;;;;;25.31;39.76;101459.28;6304066;22;45207;-82
2023/05/11 05:01:30;;;;;;;;;1.33;1.00;;;;;25.30;39.80;101465.63;6304936;22;45406;-86
2023/05/11 05:03:55;;;;;;;;;7.00;1.67;;;;;25.31;39.90;101463.78;6303892;22;46142;-86
2023/05/11 05:06:21;;;;;;;;;4.00;3.00;;;;;25.22;39.60;101442.59;6305082;22;45309;-85
2023/05/11 05:08:46;;;;;;;;;1.67;1.67;;;;;25.31;40.02;101466.44;6304583;22;45237;-85
2023/05/11 05:11:11;;;;;;;;;5.00;2.33;;;;;25.32;39.94;101470.78;6305097;22;45189;-81
2023/05/11 05:13:37;;;;;;;;;1.00;1.00;;;;;25.31;39.69;101474.44;6305183;22;45755;-86
2023/05/11 05:16:02;;;;;;;;;2.67;1.00;;;;;25.12;39.65;101444.72;6305323;22;45220;-86
2023/05/11 05:18:28;;;;;;;;;4.00;2.00;;;;;25.31;39.91;101477.09;6305243;22;45497;-86
2023/05/11 05:20:53;;;;;;;;;3.00;1.00;;;;;25.18;39.92;101463.47;6305473;22;45316;-86
2023/05/11 05:23:18;;;;;;;;;1.00;1.00;;;;;25.21;40.05;101462.25;6304901;22;45260;-83
2023/05/11 05:25:43;;;;;;;;;1.00;1.00;;;;;25.26;39.90;101475.84;6304132;22;45391;-80
2023/05/11 05:28:09;;;;;;;;;4.00;2.67;;;;;25.31;39.86;101487.75;6304827;22;45311;-81
2023/05/11 05:30:35;;;;;;;;;1.67;1.67;;;;;25.23;39.86;101468.22;6304821;22;45471;-79
2023/05/11 05:33:01;;;;;;;;;2.33;2.00;;;;;25.32;39.91;101484.09;6303933;22;47104;-80
2023/05/11 05:35:26;;;;;;;;;1.00;1.00;;;;;25.34;39.61;101484.72;6304383;22;45363;-80
2023/05/11 05:37:52;;;;;;;;;2.00;1.00;;;;;25.35;39.93;101486.34;6304459;22;45308;-79
2023/05/11 05:40:17;;;;;;;;;6.67;1.33;;;;;25.36;39.55;101485.34;6302565;22;45300;-79
2023/05/11 05:42:42;;;;;;;;;3.67;1.00;;;;;25.32;39.21;101479.56;6303980;22;45962;-79
2023/05/11 05:45:08;;;;;;;;;5.67;1.00;;;;;25.35;39.59;101483.69;6304003;22;45150;-79
2023/05/11 05:47:34;;;;;;;;;3.33;1.00;;;;;25.39;39.58;101492.97;6303942;22;45267;-79
2023/05/11 05:49:59;;;;;;;;;1.00;1.00;;;;;25.32;39.94;101479.56;6304223;22;45165;-79
2023/05/11 05:52:25;;;;;;;;;3.00;3.00;;;;;25.40;39.26;101490.13;6303875;22;47191;-80
2023/05/11 05:54:50;;;;;;;;;1.67;1.00;;;;;25.42;39.42;101487.28;6304244;22;45275;-80
2023/05/11 05:57:15;;;;;;;;;3.00;1.00;;;;;25.44;39.66;101498.56;6304328;22;45193;-80
2023/05/11 05:59:40;;;;;;;;;8.33;2.00;;;;;25.45;39.65;101489.56;6304631;22;45145;-80
2023/05/11 06:02:07;;;;;;;;;1.00;1.00;;;;;25.38;39.99;101484.16;6304222;22;53401;-79
2023/05/11 06:04:32;;;;;;;;;3.67;2.00;;;;;25.39;39.49;101479.66;6304101;22;45344;-80
2023/05/11 06:06:58;;;;;;;;;6.00;1.00;;;;;25.50;39.64;101497.81;6304812;22;45615;-81
2023/05/11 06:09:24;;;;;;;;;1.00;1.00;;;;;25.51;39.64;101495.97;6304145;22;45378;-79
2023/05/11 06:11:49;;;;;;;;;2.67;2.67;;;;;25.50;39.49;101492.47;6303952;22;46176;-83
2023/05/11 06:14:15;;;;;;;;;3.33;1.33;;;;;25.40;39.84;101478.63;6304155;22;45364;-83
2023/05/11 06:16:40;;;;;;;;;0.33;0.33;;;;;25.36;39.83;101470.22;6304887;22;45299;-84
2023/05/11 06:19:07;;;;;;;;;0.00;0.00;;;;;25.50;39.49;101497.81;6304798;22;45579;-83
2023/05/11 06:21:32;;;;;;;;;2.67;1.00;;;;;25.45;39.79;101486.88;6287492;22;47254;-84
2023/05/11 06:23:57;;;;;;;;;1.00;1.00;;;;;25.46;39.43;101480.56;6296986;22;45357;-84
2023/05/11 06:26:24;;;;;;;;;3.33;1.00;;;;;25.50;39.49;101483.69;6302146;22;45751;-84
2023/05/11 06:28:50;;;;;;;;;1.00;1.00;;;;;25.57;39.35;101494.41;6301809;22;45534;-84
2023/05/11 06:31:15;;;;;;;;;1.00;1.00;;;;;25.48;39.63;101489.19;6301556;22;46084;-84
2023/05/11 06:33:41;;;;;;;;;3.00;1.00;;;;;25.57;39.44;101500.56;6301608;22;45207;-83
2023/05/11 06:36:06;;;;;;;;;1.33;1.33;;;;;25.57;39.73;101503.22;6301554;22;45212;-83
2023/05/11 06:38:32;;;;;;;;;2.00;1.00;;;;;25.58;39.62;101509.38;6301152;22;45629;-83
2023/05/11 06:40:57;;;;;;;;;1.00;1.00;;;;;25.60;39.23;101510.00;6301270;22;46201;-83
2023/05/11 06:43:22;;;;;;;;;1.00;1.00;;;;;25.62;39.43;101508.81;6301304;22;45263;-82
2023/05/11 06:45:48;;;;;;;;;3.67;0.67;;;;;25.70;38.91;101507.88;6301644;22;45534;-83
2023/05/11 06:48:14;;;;;;;;;2.00;2.00;;;;;25.67;38.90;101494.09;6299985;22;45502;-83
2023/05/11 06:50:39;;;;;;;;;2.00;1.33;;;;;25.72;39.22;101500.50;6301492;22;48988;-84
2023/05/11 06:53:05;;;;;;;;;2.00;1.00;;;;;25.79;38.80;101505.91;6300319;22;45343;-83
2023/05/11 06:55:30;;;;;;;;;1.33;1.00;;;;;25.89;38.89;101513.63;6301598;22;45390;-84
2023/05/11 06:57:56;;;;;;;;;1.00;0.00;;;;;25.95;38.90;101504.00;6302762;22;45716;-84
2023/05/11 07:00:21;;;;;;;;;1.00;1.00;;;;;25.95;38.68;101496.84;6301296;22;59466;-84
2023/05/11 07:02:47;;;;;;;;;0.67;0.00;;;;;26.06;39.13;101516.84;6301614;22;45412;-83
2023/05/11 07:05:12;;;;;;;;;3.67;1.67;;;;;26.13;38.50;101516.06;6302044;22;45829;-84
2023/05/11 07:07:37;;;;;;;;;2.33;1.67;;;;;26.00;38.47;101485.59;6301459;22;45229;-85
2023/05/11 07:10:06;;;;;;;;;5.67;1.00;;;;;26.18;38.59;101514.47;6301750;22;46010;-85
2023/05/11 07:12:32;;;;;;;;;1.67;1.67;;;;;26.24;38.83;101512.06;6301278;22;45340;-85
2023/05/11 07:14:57;;;;;;;;;0.00;0.00;;;;;26.29;38.41;101510.47;6299347;22;45306;-84
2023/05/11 07:17:22;;;;;;;;;3.33;1.00;;;;;26.32;38.75;101513.75;6302140;22;45390;-84
2023/05/11 07:19:51;;;;;;;;;2.00;0.00;;;;;26.28;38.54;101506.13;6301514;22;45733;-84
2023/05/11 07:22:16;;;;;;;;;0.33;0.33;;;;;26.31;38.47;101512.91;6301446;22;45315;-84
2023/05/11 07:24:41;;;;;;;;;3.67;1.00;;;;;26.29;38.34;101515.78;6301827;22;45267;-83
2023/05/11 07:27:07;;;;;;;;;0.00;0.00;;;;;26.22;38.64;101508.75;6299998;22;45318;-83
2023/05/11 07:29:32;;;;;;;;;2.00;1.00;;;;;26.27;37.99;101517.84;6301285;22;46094;-82
2023/05/11 07:31:57;;;;;;;;;1.00;1.00;;;;;26.29;38.61;101517.63;6300671;22;45359;-83
2023/05/11 07:34:23;;;;;;;;;1.67;0.00;;;;;26.26;38.35;101516.19;6301495;22;45287;-81
2023/05/11 07:36:49;;;;;;;;;3.00;1.00;;;;;26.24;38.73;101515.56;6300308;22;45465;-84
2023/05/11 07:39:15;;;;;;;;;3.67;0.67;;;;;26.28;38.42;101522.13;6301298;22;47202;-83
2023/05/11 07:41:41;;;;;;;;;0.33;0.33;;;;;26.27;38.68;101522.34;6300444;22;45209;-82
2023/05/11 07:44:06;;;;;;;;;0.00;0.00;;;;;26.25;38.00;101522.53;6301181;22;45183;-83
2023/05/11 07:46:32;;;;;;;;;3.00;2.00;;;;;26.17;38.46;101514.69;6301227;22;45359;-83
2023/05/11 07:48:57;;;;;;;;;2.00;1.00;;;;;26.13;38.14;101505.41;6300808;22;46001;-83
2023/05/11 07:51:23;;;;;;;;;1.00;0.00;;;;;26.21;38.31;101523.09;6301365;22;45336;-84
2023/05/11 07:53:48;;;;;;;;;0.67;0.67;;;;;26.24;38.42;101526.22;6299671;22;45565;-84
2023/05/11 07:56:13;;;;;;;;;3.00;0.67;;;;;26.17;38.48;101518.19;6301449;22;48704;-84
2023/05/11 07:58:38;;;;;;;;;1.00;1.00;;;;;26.18;38.10;101517.13;6301644;22;46953;-83
2023/05/11 08:01:04;;;;;;;;;1.00;1.00;;;;;26.26;38.26;101526.00;6301587;22;45362;-83
2023/05/11 08:03:30;;;;;;;;;1.00;1.00;;;;;26.26;38.26;101526.00;6301386;22;45902;-83
2023/05/11 08:05:55;;;;;;;;;3.00;1.00;;;;;26.23;38.13;101524.56;6300840;22;45265;-84
2023/05/11 08:08:21;;;;;;;;;1.00;0.00;;;;;26.27;37.86;101528.50;6300770;22;46083;-84
2023/05/11 08:10:46;;;;;;;;;1.67;0.67;;;;;26.20;38.12;101510.81;6299711;22;45325;-85
2023/05/11 08:13:11;;;;;;;;;1.33;1.00;;;;;26.27;38.21;101522.34;6301960;22;45374;-84
2023/05/11 08:15:37;;;;;;;;;0.33;0.00;;;;;26.26;37.76;101512.69;6300488;22;45449;-84
2023/05/11 08:18:02;;;;;;;;;1.00;1.00;;;;;26.17;37.95;101499.50;6300745;22;46371;-84
2023/05/11 08:20:28;;;;;;;;;1.00;1.00;;;;;26.30;37.88;101513.97;6300711;22;45765;-84
2023/05/11 08:22:53;;;;;;;;;2.00;1.00;;;;;26.26;38.00;101512.69;6300599;22;45278;-83
2023/05/11 08:25:18;;;;;;;;;4.33;1.67;;;;;26.30;37.95;101511.28;6301628;22;45686;-85
2023/05/11 08:27:44;;;;;;;;;2.00;0.00;;;;;26.29;38.01;101514.97;6301726;22;45240;-84
2023/05/11 08:30:10;;;;;;;;;1.00;1.00;;;;;26.29;37.97;101523.81;6301116;22;45351;-84
2023/05/11 08:32:35;;;;;;;;;1.67;0.00;;;;;26.19;38.15;101512.63;6301682;22;45405;-83
2023/05/11 08:35:02;;;;;;;;;2.67;1.00;;;;;26.25;38.09;101530.56;6299051;22;45234;-84
2023/05/11 08:37:28;;;;;;;;;0.00;0.00;;;;;26.23;38.56;101519.22;6300588;22;46413;-84
2023/05/11 08:39:53;;;;;;;;;1.67;1.67;;;;;26.17;38.41;101515.50;6300733;22;45334;-84
2023/05/11 08:42:22;;;;;;;;;1.00;1.00;;;;;25.97;38.51;101491.31;6300778;22;45633;-84
2023/05/11 08:44:48;;;;;;;;;2.00;1.00;;;;;26.16;38.04;101527.19;6301535;22;45514;-84
2023/05/11 08:47:14;;;;;;;;;1.00;1.00;;;;;26.09;38.06;101514.81;6301163;22;46194;-83
2023/05/11 08:49:40;;;;;;;;;1.67;0.33;;;;;26.06;38.32;101511.50;6300961;22;45683;-83
2023/05/11 08:52:05;;;;;;;;;1.00;0.00;;;;;26.00;38.11;101514.94;6300448;22;45395;-83
2023/05/11 08:54:32;;;;;;;;;1.00;1.00;;;;;26.11;38.46;101529.59;6300966;22;45767;-83
2023/05/11 08:56:58;;;;;;;;;1.00;1.00;;;;;26.07;38.30;101531.81;6301059;22;46035;-82
2023/05/11 08:59:28;;;;;;;;;2.00;1.00;;;;;26.04;38.26;101534.06;6301122;22;45327;-82
2023/05/11 09:01:55;;;;;;;;;0.00;0.00;;;;;26.08;38.24;101543.31;6300726;22;45535;-82
2023/05/11 09:04:23;;;;;;;;;0.67;0.00;;;;;26.06;38.16;101551.50;6300095;22;45441;-83
2023/05/11 09:06:49;;;;;;;;;1.00;1.00;;;;;25.98;38.30;101532.13;6301004;22;45968;-83
2023/05/11 09:09:17;;;;;;;;;1.00;1.00;;;;;26.05;38.31;101551.69;6301386;22;45636;-83
2023/05/11 09:11:43;;;;;;;;;2.00;0.00;;;;;25.97;37.77;101541.97;6301505;22;45375;-83
2023/05/11 09:14:09;;;;;;;;;3.00;0.33;;;;;26.03;37.93;101549.22;6301245;22;46104;-83
2023/05/11 09:16:34;;;;;;;;;1.00;1.00;;;;;26.03;38.36;101553.72;6300501;22;47042;-83
2023/05/11 09:19:03;;;;;;;;;2.00;0.67;;;;;26.03;38.45;101554.56;6300636;22;45315;-82
2023/05/11 09:21:30;;;;;;;;;0.00;0.00;;;;;26.05;38.03;101557.00;6300903;22;45364;-82
2023/05/11 09:23:57;;;;;;;;;1.67;1.67;;;;;26.03;38.33;101551.06;6300366;22;45389;-82
2023/05/11 09:26:24;;;;;;;;;3.33;2.00;;;;;26.10;38.15;101561.81;6300666;22;46227;-83
2023/05/11 09:28:51;;;;;;;;;2.67;1.00;;;;;26.07;38.44;101553.13;6298603;22;45139;-84
2023/05/11 09:31:42;;;;;;;;;1.00;1.00;;;;;26.13;37.99;101562.22;6301363;22;45351;-86
2023/05/11 09:34:19;;;;;;;;;1.00;1.00;;;;;26.12;37.71;101559.75;6299747;22;45360;-79
2023/05/11 09:36:49;;;;;;;;;2.00;1.00;;;;;26.09;37.96;101558.31;6301134;22;46164;-80
2023/05/11 09:39:15;;;;;;;;;1.00;1.00;;;;;26.09;37.82;101563.63;6300951;22;45363;-82
2023/05/11 09:41:41;;;;;;;;;1.67;0.33;;;;;26.01;38.15;101547.75;6299347;22;45307;-80
2023/05/11 09:44:12;;;;;;;;;0.00;0.00;;;;;26.03;38.25;101556.38;6300424;22;45307;-82
2023/05/11 09:46:39;;;;;;;;;2.33;0.00;;;;;26.08;38.37;101561.97;6298833;22;47758;-82
2023/05/11 09:49:05;;;;;;;;;1.00;1.00;;;;;26.07;37.90;101565.66;6300025;22;45318;-79
2023/05/11 09:51:33;;;;;;;;;3.00;0.33;;;;;26.06;38.05;101564.00;6300636;22;45282;-80
2023/05/11 09:54:00;;;;;;;;;3.33;0.67;;;;;26.07;38.43;101571.00;6300131;22;45699;-82
2023/05/11 09:56:46;;;;;;;;;0.00;0.00;;;;;26.03;37.98;101564.38;6300271;22;47049;-81
2023/05/11 09:59:12;;;;;;;;;1.00;0.67;;;;;25.73;38.42;101518.19;6300724;22;45316;-82
2023/05/11 10:01:37;;;;;;;;;1.00;1.00;;;;;25.98;38.08;101546.28;6299789;22;45232;-82
2023/05/11 10:04:03;;;;;;;;;2.00;1.00;;;;;26.00;37.86;101551.44;6300135;22;45394;-81
2023/05/11 10:06:46;;;;;;;;;1.00;1.00;;;;;26.01;38.27;101545.91;6300056;22;46216;-80
2023/05/11 10:09:13;;;;;;;;;0.33;0.33;;;;;26.01;38.24;101545.91;6301083;22;45406;-81
2023/05/11 10:11:43;;;;;;;;;3.00;1.33;;;;;26.00;37.96;101546.09;6300793;22;45762;-81
2023/05/11 10:14:11;;;;;;;;;1.00;1.00;;;;;25.96;38.17;101538.50;6300488;22;45299;-79
2023/05/11 10:16:37;;;;;;;;;3.00;0.00;;;;;26.01;38.33;101542.44;6300094;22;46020;-81
2023/05/11 10:19:02;;;;;;;;;1.00;1.00;;;;;25.93;38.36;101527.38;6299896;22;45542;-81
2023/05/11 10:21:28;;;;;;;;;0.00;0.00;;;;;26.02;38.12;101538.75;6300532;22;45329;-81
2023/05/11 10:23:56;;;;;;;;;0.00;0.00;;;;;26.04;38.13;101534.06;6299897;22;45412;-80
2023/05/11 10:26:23;;;;;;;;;2.67;1.00;;;;;25.90;38.04;101517.91;6300899;22;45670;-79
2023/05/11 10:28:48;;;;;;;;;1.67;1.00;;;;;26.04;38.25;101526.88;6300490;22;45309;-80
2023/05/11 10:31:16;;;;;;;;;2.33;0.33;;;;;25.94;38.40;101513.03;6299740;22;45251;-79
2023/05/11 10:33:42;;;;;;;;;2.00;1.00;;;;;26.09;38.54;101528.97;6300160;22;45525;-78
2023/05/11 10:36:08;;;;;;;;;4.67;1.00;;;;;26.13;38.07;101526.72;6299747;22;45394;-78
2023/05/11 10:38:33;;;;;;;;;2.00;1.00;;;;;26.10;38.36;101522.59;6299736;22;45739;-79
2023/05/11 10:41:12;;;;;;;;;0.67;0.67;;;;;26.18;38.33;101532.31;6299363;22;45381;-79
2023/05/11 10:44:11;;;;;;;;;2.00;2.00;;;;;26.18;38.27;101530.47;6299598;22;45272;-81
2023/05/11 10:47:00;;;;;;;;;1.67;0.00;;;;;26.18;38.12;101527.81;6298777;22;46008;-81
2023/05/11 10:49:39;;;;;;;;;1.00;1.00;;;;;26.22;38.46;101528.25;6299523;22;45379;-79
2023/05/11 10:52:16;;;;;;;;;2.00;2.00;;;;;26.23;38.23;101523.75;6299526;22;45190;-79
2023/05/11 10:55:04;;;;;;;;;3.00;1.00;;;;;26.24;38.28;101517.38;6300156;22;45299;-79
2023/05/11 10:58:03;;;;;;;;;2.00;1.00;;;;;26.25;38.05;101522.53;6298893;22;46203;-78
2023/05/11 11:00:47;;;;;;;;;1.00;1.00;;;;;26.26;38.25;101516.19;6298670;22;45240;-77
2023/05/11 11:03:14;;;;;;;;;2.33;0.33;;;;;26.26;38.37;101505.50;6300037;22;45334;-77
2023/05/11 11:05:42;;;;;;;;;0.33;0.33;;;;;26.26;38.06;101512.69;6299304;22;45170;-83
2023/05/11 11:08:08;;;;;;;;;3.00;0.67;;;;;26.27;38.27;101511.66;6300958;22;46274;-85
2023/05/11 11:10:38;;;;;;;;;2.00;1.67;;;;;26.03;38.40;101471.06;6302139;22;45561;-86
2023/05/11 11:13:05;;;;;;;;;2.00;2.00;;;;;26.31;37.93;101512.13;6301950;22;45427;-86
2023/05/11 11:15:52;;;;;;;;;2.67;1.00;;;;;26.31;37.88;101506.78;6301073;22;45451;-85
2023/05/11 11:18:28;;;;;;;;;0.67;0.33;;;;;26.32;37.84;101513.75;6301706;22;47268;-87
2023/05/11 11:20:55;;;;;;;;;2.33;0.33;;;;;26.29;37.79;101507.78;6300828;22;45403;-86
2023/05/11 11:23:40;;;;;;;;;0.33;0.00;;;;;26.31;38.11;101512.13;6302116;22;45296;-85
2023/05/11 11:26:09;;;;;;;;;0.67;0.00;;;;;26.22;38.40;101500.75;6300142;22;45332;-87
2023/05/11 11:28:53;;;;;;;;;2.00;1.00;;;;;26.28;37.83;101508.81;6301686;22;45868;-81